Map

Track Data

SID SEASON NUMBER BASIN SUBBASIN NAME ISO_TIME NATURE LAT LON WMO_WIND WMO_PRES WMO_AGENCY TRACK_TYPE DIST2LAND LANDFALL IFLAG USA_AGENCY USA_ATCF_ID USA_LAT USA_LON USA_RECORD USA_STATUS USA_WIND USA_PRES USA_SSHS USA_R34_NE USA_R34_SE USA_R34_SW USA_R34_NW USA_R50_NE USA_R50_SE USA_R50_SW USA_R50_NW USA_R64_NE USA_R64_SE USA_R64_SW USA_R64_NW USA_POCI USA_ROCI USA_RMW USA_EYE TOKYO_LAT TOKYO_LON TOKYO_GRADE TOKYO_WIND TOKYO_PRES TOKYO_R50_DIR TOKYO_R50_LONG TOKYO_R50_SHORT TOKYO_R30_DIR TOKYO_R30_LONG TOKYO_R30_SHORT TOKYO_LAND CMA_LAT CMA_LON CMA_CAT CMA_WIND CMA_PRES HKO_LAT HKO_LON HKO_CAT HKO_WIND HKO_PRES NEWDELHI_LAT NEWDELHI_LON NEWDELHI_GRADE NEWDELHI_WIND NEWDELHI_PRES NEWDELHI_CI NEWDELHI_DP NEWDELHI_POCI REUNION_LAT REUNION_LON REUNION_TYPE REUNION_WIND REUNION_PRES REUNION_TNUM REUNION_CI REUNION_RMW REUNION_R34_NE REUNION_R34_SE REUNION_R34_SW REUNION_R34_NW REUNION_R50_NE REUNION_R50_SE REUNION_R50_SW REUNION_R50_NW REUNION_R64_NE REUNION_R64_SE REUNION_R64_SW REUNION_R64_NW BOM_LAT BOM_LON BOM_TYPE BOM_WIND BOM_PRES BOM_TNUM BOM_CI BOM_RMW BOM_R34_NE BOM_R34_SE BOM_R34_SW BOM_R34_NW BOM_R50_NE BOM_R50_SE BOM_R50_SW BOM_R50_NW BOM_R64_NE BOM_R64_SE BOM_R64_SW BOM_R64_NW BOM_ROCI BOM_POCI BOM_EYE BOM_POS_METHOD BOM_PRES_METHOD NADI_LAT NADI_LON NADI_CAT NADI_WIND NADI_PRES WELLINGTON_LAT WELLINGTON_LON WELLINGTON_WIND WELLINGTON_PRES DS824_LAT DS824_LON DS824_STAGE DS824_WIND DS824_PRES TD9636_LAT TD9636_LON TD9636_STAGE TD9636_WIND TD9636_PRES TD9635_LAT TD9635_LON TD9635_WIND TD9635_PRES TD9635_ROCI NEUMANN_LAT NEUMANN_LON NEUMANN_CLASS NEUMANN_WIND NEUMANN_PRES MLC_LAT MLC_LON MLC_CLASS MLC_WIND MLC_PRES USA_GUST BOM_GUST BOM_GUST_PER REUNION_GUST REUNION_GUST_PER USA_SEAHGT USA_SEARAD_NE USA_SEARAD_SE USA_SEARAD_SW USA_SEARAD_NW STORM_SPEED STORM_DIR
1990222N11219 1990 64 EP CP NOT_NAMED 1990-08-09 18:00:00 NR 11.1000 -141.100 main 1743 1725 O_____________ jtwc_cp CP021990 11.1000 -141.100 -1 4 270
1990222N11219 1990 64 EP CP NOT_NAMED 1990-08-09 21:00:00 NR 11.1000 -141.312 main 1725 1707 P_____________ CP021990 11.1000 -141.312 -1 4 270
1990222N11219 1990 64 EP CP NOT_NAMED 1990-08-10 00:00:00 NR 11.1000 -141.500 main 1707 1698 O_____________ jtwc_cp CP021990 11.1000 -141.500 26 -1 3 270
1990222N11219 1990 64 EP CP NOT_NAMED 1990-08-10 03:00:00 NR 11.1000 -141.650 main 1689 1680 P_____________ CP021990 11.1000 -141.650 26 -1 3 270
1990222N11219 1990 64 EP CP NOT_NAMED 1990-08-10 06:00:00 NR 11.1000 -141.800 main 1680 1662 O_____________ jtwc_cp CP021990 11.1000 -141.800 26 -1 3 271
1990222N11219 1990 64 EP CP NOT_NAMED 1990-08-10 09:00:00 NR 11.1075 -142.000 main 1662 1645 P_____________ CP021990 11.1075 -142.000 26 -1 4 270
1990222N11219 1990 64 EP CP NOT_NAMED 1990-08-10 12:00:00 NR 11.1000 -142.200 main 1645 1636 O_____________ jtwc_cp CP021990 11.1000 -142.200 26 -1 3 257
1990222N11219 1990 64 EP CP NOT_NAMED 1990-08-10 15:00:00 NR 11.0349 -142.328 main 1643 1625 P_____________ CP021990 11.0349 -142.328 28 -1 3 251
1990222N11219 1990 64 EP CP NOT_NAMED 1990-08-10 18:00:00 NR 11.0000 -142.500 30 cphc main 1625 1593 O_____________ jtwc_cp CP021990 11.0000 -142.500 30 -1 5 275
1990222N11219 1990 64 EP CP NOT_NAMED 1990-08-10 21:00:00 NR 11.0750 -142.822 main 1593 1551 P_____________ CP021990 11.0700 -142.812 30 -1 7 286
1990222N11219 1990 64 EP CP NOT_NAMED 1990-08-11 00:00:00 NR 11.2000 -143.200 30 cphc main 1551 1510 O_____________ jtwc_cp CP021990 11.2000 -143.200 30 -1 8 290
1990222N11219 1990 64 EP CP NOT_NAMED 1990-08-11 03:00:00 NR 11.3537 -143.592 main 1503 1462 P_____________ CP021990 11.3500 -143.592 30 -1 8 291
1990222N11219 1990 64 EP CP NOT_NAMED 1990-08-11 06:00:00 NR 11.5000 -144.000 30 cphc main 1462 1421 O_____________ jtwc_cp CP021990 11.5000 -144.000 30 -1 8 289
1990222N11219 1990 64 EP CP NOT_NAMED 1990-08-11 09:00:00 NR 11.6274 -144.396 main 1421 1381 P_____________ CP021990 11.6599 -144.400 27 -1 8 281
1990222N11219 1990 64 EP CP NOT_NAMED 1990-08-11 12:00:00 NR 11.6500 -144.800 30 cphc main 1381 1363 O_____________ jtwc_cp CP021990 11.7000 -144.800 25 -1 8 261
1990222N11219 1990 64 EP CP NOT_NAMED 1990-08-11 15:00:00 NR 11.4949 -145.214 main 1363 1346 P_____________ CP021990 11.5099 -145.185 27 -1 9 244
1990222N11219 1990 64 EP CP NOT_NAMED 1990-08-11 18:00:00 NR 11.2500 -145.650 30 cphc main 1346 1331 O_____________ jtwc_cp CP021990 11.2000 -145.600 30 -1 10 241
1990222N11219 1990 64 EP CP NOT_NAMED 1990-08-11 21:00:00 NR 11.0062 -146.118 main 1332 1310 P_____________ CP021990 10.8550 -146.093 30 -1 10 244
1990222N11219 1990 64 EP CP NOT_NAMED 1990-08-12 00:00:00 NR 10.8000 -146.600 30 cphc main 1310 1282 O_____________ jtwc_cp CP021990 10.6000 -146.600 30 -1 10 252
1990222N11219 1990 64 EP CP NOT_NAMED 1990-08-12 03:00:00 NR 10.7062 -147.079 main 1282 1254 P_____________ CP021990 10.6199 -147.057 30 -1 9 261
1990222N11219 1990 64 EP CP NOT_NAMED 1990-08-12 06:00:00 NR 10.6500 -147.550 30 cphc main 1247 1230 O_____________ jtwc_cp CP021990 10.7000 -147.500 30 -1 9 260
1990222N11219 1990 64 EP CP NOT_NAMED 1990-08-12 09:00:00 NR 10.5461 -147.989 main 1239 1213 P_____________ CP021990 10.6149 -147.935 30 -1 9 257
1990222N11219 1990 64 EP CP NOT_NAMED 1990-08-12 12:00:00 NR 10.4500 -148.450 30 cphc main 1213 1192 O_____________ jtwc_cp CP021990 10.5000 -148.400 30 -1 10 260
1990222N11219 1990 64 EP CP NOT_NAMED 1990-08-12 15:00:00 NR 10.3736 -148.959 main 1186 1167 P_____________ CP021990 10.4273 -148.905 27 -1 11 265
1990222N11219 1990 64 EP CP NOT_NAMED 1990-08-12 18:00:00 NR 10.3500 -149.550 25 cphc main 1152 1120 O_____________ jtwc_cp CP021990 10.4000 -149.500 25 -1 13 271
1990222N11219 1990 64 EP CP NOT_NAMED 1990-08-12 21:00:00 NR 10.4029 -150.245 main 1120 1067 P_____________ CP021990 10.4330 -150.215 22 -1 14 276
1990222N11219 1990 64 EP CP NOT_NAMED 1990-08-13 00:00:00 NR 10.5000 -151.000 20 cphc main 1067 O_____________ jtwc_cp CP021990 10.5000 -151.000 20 -1 15 277

About IBTrACS Database

This database is a web-friendly format of International Best Track Archive for Climate Stewardship (IBTrACS), a global best track data archive curated by NOAA dating back to 1842.

Updated: 2021-10-08